sensor_id;sensor_type;location;lat;lon;timestamp;temperature;humidity
52127;DHT22;38120;53.176;6.614;2022-10-15T00:00:29;13.20;99.90
52127;DHT22;38120;53.176;6.614;2022-10-15T00:02:55;13.10;99.90
52127;DHT22;38120;53.176;6.614;2022-10-15T00:05:21;13.20;99.90
52127;DHT22;38120;53.176;6.614;2022-10-15T00:07:47;13.10;99.90
52127;DHT22;38120;53.176;6.614;2022-10-15T00:10:13;13.10;99.90
52127;DHT22;38120;53.176;6.614;2022-10-15T00:12:39;13.20;99.90
52127;DHT22;38120;53.176;6.614;2022-10-15T00:15:06;13.20;99.90
52127;DHT22;38120;53.176;6.614;2022-10-15T00:17:32;13.20;99.90
52127;DHT22;38120;53.176;6.614;2022-10-15T00:19:58;13.10;99.90
52127;DHT22;38120;53.176;6.614;2022-10-15T00:22:23;13.10;99.90
52127;DHT22;38120;53.176;6.614;2022-10-15T00:24:49;13.10;99.90
52127;DHT22;38120;53.176;6.614;2022-10-15T00:27:15;13.10;99.90
52127;DHT22;38120;53.176;6.614;2022-10-15T00:29:41;13.10;99.90
52127;DHT22;38120;53.176;6.614;2022-10-15T00:32:06;13.10;99.90
52127;DHT22;38120;53.176;6.614;2022-10-15T00:34:32;13.10;99.90
52127;DHT22;38120;53.176;6.614;2022-10-15T00:36:58;13.00;99.90
52127;DHT22;38120;53.176;6.614;2022-10-15T00:39:23;13.00;99.90
52127;DHT22;38120;53.176;6.614;2022-10-15T00:41:49;13.00;99.90
52127;DHT22;38120;53.176;6.614;2022-10-15T00:46:57;13.10;99.90
52127;DHT22;38120;53.176;6.614;2022-10-15T00:49:37;13.10;99.90
52127;DHT22;38120;53.176;6.614;2022-10-15T00:52:09;13.10;99.90
52127;DHT22;38120;53.176;6.614;2022-10-15T00:54:41;13.00;99.90
52127;DHT22;38120;53.176;6.614;2022-10-15T00:57:09;13.10;99.90
52127;DHT22;38120;53.176;6.614;2022-10-15T00:59:42;13.00;99.90
52127;DHT22;38120;53.176;6.614;2022-10-15T01:02:10;13.00;99.90
52127;DHT22;38120;53.176;6.614;2022-10-15T01:04:36;13.00;99.90
52127;DHT22;38120;53.176;6.614;2022-10-15T01:07:02;13.00;99.90
52127;DHT22;38120;53.176;6.614;2022-10-15T01:09:28;13.10;99.90
52127;DHT22;38120;53.176;6.614;2022-10-15T01:11:55;13.00;99.90
52127;DHT22;38120;53.176;6.614;2022-10-15T01:20:43;13.00;99.90
52127;DHT22;38120;53.176;6.614;2022-10-15T01:32:12;13.00;99.90
52127;DHT22;38120;53.176;6.614;2022-10-15T01:37:37;13.00;99.90
52127;DHT22;38120;53.176;6.614;2022-10-15T01:40:07;13.00;99.90
52127;DHT22;38120;53.176;6.614;2022-10-15T01:45:37;13.00;99.90
52127;DHT22;38120;53.176;6.614;2022-10-15T01:48:08;13.00;99.90
52127;DHT22;38120;53.176;6.614;2022-10-15T01:50:38;13.00;99.90
52127;DHT22;38120;53.176;6.614;2022-10-15T01:53:06;13.00;99.90
52127;DHT22;38120;53.176;6.614;2022-10-15T01:55:33;13.00;99.90
52127;DHT22;38120;53.176;6.614;2022-10-15T01:58:00;13.00;99.90
52127;DHT22;38120;53.176;6.614;2022-10-15T02:00:27;12.90;99.90
52127;DHT22;38120;53.176;6.614;2022-10-15T02:02:58;13.00;99.90
52127;DHT22;38120;53.176;6.614;2022-10-15T02:05:29;13.00;99.90
52127;DHT22;38120;53.176;6.614;2022-10-15T02:08:07;13.00;99.90
52127;DHT22;38120;53.176;6.614;2022-10-15T02:10:48;13.00;99.90
52127;DHT22;38120;53.176;6.614;2022-10-15T02:19:05;13.00;99.90
52127;DHT22;38120;53.176;6.614;2022-10-15T02:26:56;13.00;99.90
52127;DHT22;38120;53.176;6.614;2022-10-15T02:29:26;12.90;99.90
52127;DHT22;38120;53.176;6.614;2022-10-15T02:31:53;13.00;99.90
52127;DHT22;38120;53.176;6.614;2022-10-15T02:34:21;13.00;99.90
52127;DHT22;38120;53.176;6.614;2022-10-15T02:36:50;13.00;99.90
52127;DHT22;38120;53.176;6.614;2022-10-15T02:39:20;12.90;99.90
52127;DHT22;38120;53.176;6.614;2022-10-15T02:41:47;12.90;99.90
52127;DHT22;38120;53.176;6.614;2022-10-15T02:44:13;13.00;99.90
52127;DHT22;38120;53.176;6.614;2022-10-15T02:46:39;12.90;99.90
52127;DHT22;38120;53.176;6.614;2022-10-15T02:49:05;12.90;99.90
52127;DHT22;38120;53.176;6.614;2022-10-15T02:51:32;13.00;99.90
52127;DHT22;38120;53.176;6.614;2022-10-15T02:53:58;13.00;99.90
52127;DHT22;38120;53.176;6.614;2022-10-15T02:56:24;12.90;99.90
52127;DHT22;38120;53.176;6.614;2022-10-15T02:58:51;13.00;99.90
52127;DHT22;38120;53.176;6.614;2022-10-15T03:01:16;12.90;99.90
52127;DHT22;38120;53.176;6.614;2022-10-15T03:03:42;13.00;99.90
52127;DHT22;38120;53.176;6.614;2022-10-15T03:06:08;13.00;99.90
52127;DHT22;38120;53.176;6.614;2022-10-15T03:08:33;12.90;99.90
52127;DHT22;38120;53.176;6.614;2022-10-15T03:11:00;12.90;99.90
52127;DHT22;38120;53.176;6.614;2022-10-15T03:13:27;12.80;99.90
52127;DHT22;38120;53.176;6.614;2022-10-15T03:15:52;12.80;99.90
52127;DHT22;38120;53.176;6.614;2022-10-15T03:18:18;12.90;99.90
52127;DHT22;38120;53.176;6.614;2022-10-15T03:20:44;12.90;99.90
52127;DHT22;38120;53.176;6.614;2022-10-15T03:23:11;12.90;99.90
52127;DHT22;38120;53.176;6.614;2022-10-15T03:25:37;12.90;99.90
52127;DHT22;38120;53.176;6.614;2022-10-15T03:28:03;12.90;99.90
52127;DHT22;38120;53.176;6.614;2022-10-15T03:30:28;12.90;99.90
52127;DHT22;38120;53.176;6.614;2022-10-15T03:32:54;13.00;99.90
52127;DHT22;38120;53.176;6.614;2022-10-15T03:35:20;13.00;99.90
52127;DHT22;38120;53.176;6.614;2022-10-15T03:37:45;12.90;99.90
52127;DHT22;38120;53.176;6.614;2022-10-15T03:40:11;12.80;99.90
52127;DHT22;38120;53.176;6.614;2022-10-15T03:42:37;12.80;99.90
52127;DHT22;38120;53.176;6.614;2022-10-15T03:45:03;12.90;99.90
52127;DHT22;38120;53.176;6.614;2022-10-15T03:47:28;12.90;99.90
52127;DHT22;38120;53.176;6.614;2022-10-15T03:49:54;13.00;99.90
52127;DHT22;38120;53.176;6.614;2022-10-15T03:52:19;13.40;99.90
52127;DHT22;38120;53.176;6.614;2022-10-15T03:54:45;12.80;99.90
52127;DHT22;38120;53.176;6.614;2022-10-15T03:57:11;12.80;99.90
52127;DHT22;38120;53.176;6.614;2022-10-15T03:59:36;12.80;99.90
52127;DHT22;38120;53.176;6.614;2022-10-15T04:02:03;12.90;99.90
52127;DHT22;38120;53.176;6.614;2022-10-15T04:04:29;12.80;99.90
52127;DHT22;38120;53.176;6.614;2022-10-15T04:06:54;12.80;99.90
52127;DHT22;38120;53.176;6.614;2022-10-15T04:09:20;12.90;99.90
52127;DHT22;38120;53.176;6.614;2022-10-15T04:11:46;12.80;99.90
52127;DHT22;38120;53.176;6.614;2022-10-15T04:14:11;12.90;99.90
52127;DHT22;38120;53.176;6.614;2022-10-15T04:16:37;12.80;99.90
52127;DHT22;38120;53.176;6.614;2022-10-15T04:19:03;12.80;99.90
52127;DHT22;38120;53.176;6.614;2022-10-15T04:21:28;12.90;99.90
52127;DHT22;38120;53.176;6.614;2022-10-15T04:23:54;12.80;99.90
52127;DHT22;38120;53.176;6.614;2022-10-15T04:26:20;12.80;99.90
52127;DHT22;38120;53.176;6.614;2022-10-15T04:28:49;12.80;99.90
52127;DHT22;38120;53.176;6.614;2022-10-15T04:31:14;12.80;99.90
52127;DHT22;38120;53.176;6.614;2022-10-15T04:33:40;12.80;99.90
52127;DHT22;38120;53.176;6.614;2022-10-15T04:36:09;12.80;99.90
52127;DHT22;38120;53.176;6.614;2022-10-15T04:38:35;12.80;99.90
52127;DHT22;38120;53.176;6.614;2022-10-15T04:41:03;12.70;99.90
52127;DHT22;38120;53.176;6.614;2022-10-15T04:43:30;12.70;99.90
52127;DHT22;38120;53.176;6.614;2022-10-15T04:46:00;12.80;99.90
52127;DHT22;38120;53.176;6.614;2022-10-15T04:48:31;12.70;99.90
52127;DHT22;38120;53.176;6.614;2022-10-15T04:51:14;12.80;99.90
52127;DHT22;38120;53.176;6.614;2022-10-15T04:53:40;12.80;99.90
52127;DHT22;38120;53.176;6.614;2022-10-15T04:56:08;12.80;99.90
52127;DHT22;38120;53.176;6.614;2022-10-15T04:58:35;12.70;99.90
52127;DHT22;38120;53.176;6.614;2022-10-15T05:01:06;12.90;99.90
52127;DHT22;38120;53.176;6.614;2022-10-15T05:03:33;12.70;99.90
52127;DHT22;38120;53.176;6.614;2022-10-15T05:06:14;12.70;99.90
52127;DHT22;38120;53.176;6.614;2022-10-15T05:08:40;12.70;99.90
52127;DHT22;38120;53.176;6.614;2022-10-15T05:11:09;12.70;99.90
52127;DHT22;38120;53.176;6.614;2022-10-15T05:13:35;12.70;99.90
52127;DHT22;38120;53.176;6.614;2022-10-15T05:16:23;12.70;99.90
52127;DHT22;38120;53.176;6.614;2022-10-15T05:18:51;12.70;99.90
52127;DHT22;38120;53.176;6.614;2022-10-15T05:21:17;12.70;99.90
52127;DHT22;38120;53.176;6.614;2022-10-15T05:23:44;12.70;99.90
52127;DHT22;38120;53.176;6.614;2022-10-15T05:26:13;12.70;99.90
52127;DHT22;38120;53.176;6.614;2022-10-15T05:28:39;12.70;99.90
52127;DHT22;38120;53.176;6.614;2022-10-15T05:31:05;12.70;99.90
52127;DHT22;38120;53.176;6.614;2022-10-15T05:33:32;12.70;99.90
52127;DHT22;38120;53.176;6.614;2022-10-15T05:36:07;12.70;99.90
52127;DHT22;38120;53.176;6.614;2022-10-15T05:38:33;12.70;99.90
52127;DHT22;38120;53.176;6.614;2022-10-15T05:40:59;12.60;99.90
52127;DHT22;38120;53.176;6.614;2022-10-15T05:43:24;12.70;99.90
52127;DHT22;38120;53.176;6.614;2022-10-15T05:45:53;12.70;99.90
52127;DHT22;38120;53.176;6.614;2022-10-15T05:48:19;12.60;99.90
52127;DHT22;38120;53.176;6.614;2022-10-15T05:50:45;12.70;99.90
52127;DHT22;38120;53.176;6.614;2022-10-15T05:53:10;12.70;99.90
52127;DHT22;38120;53.176;6.614;2022-10-15T05:55:36;12.70;99.90
52127;DHT22;38120;53.176;6.614;2022-10-15T05:58:03;12.70;99.90
52127;DHT22;38120;53.176;6.614;2022-10-15T06:00:29;12.70;99.90
52127;DHT22;38120;53.176;6.614;2022-10-15T06:02:55;12.70;99.90
52127;DHT22;38120;53.176;6.614;2022-10-15T06:05:20;12.70;99.90
52127;DHT22;38120;53.176;6.614;2022-10-15T06:07:46;12.70;99.90
52127;DHT22;38120;53.176;6.614;2022-10-15T06:10:12;12.80;99.90
52127;DHT22;38120;53.176;6.614;2022-10-15T06:12:37;12.70;99.90
52127;DHT22;38120;53.176;6.614;2022-10-15T06:15:04;12.70;99.90
52127;DHT22;38120;53.176;6.614;2022-10-15T06:17:30;12.80;99.90
52127;DHT22;38120;53.176;6.614;2022-10-15T06:19:56;12.70;99.90
52127;DHT22;38120;53.176;6.614;2022-10-15T06:22:21;12.80;99.90
52127;DHT22;38120;53.176;6.614;2022-10-15T06:24:47;12.80;99.90
52127;DHT22;38120;53.176;6.614;2022-10-15T06:27:13;12.80;99.90
52127;DHT22;38120;53.176;6.614;2022-10-15T06:29:39;12.80;99.90
52127;DHT22;38120;53.176;6.614;2022-10-15T06:32:08;12.80;99.90
52127;DHT22;38120;53.176;6.614;2022-10-15T06:34:34;12.80;99.90
52127;DHT22;38120;53.176;6.614;2022-10-15T06:37:00;12.80;99.90
52127;DHT22;38120;53.176;6.614;2022-10-15T06:39:25;12.80;99.90
52127;DHT22;38120;53.176;6.614;2022-10-15T06:41:51;12.80;99.90
52127;DHT22;38120;53.176;6.614;2022-10-15T06:44:17;12.80;99.90
52127;DHT22;38120;53.176;6.614;2022-10-15T06:46:43;12.90;99.90
52127;DHT22;38120;53.176;6.614;2022-10-15T06:49:09;12.80;99.90
52127;DHT22;38120;53.176;6.614;2022-10-15T06:51:34;12.90;99.90
52127;DHT22;38120;53.176;6.614;2022-10-15T06:54:02;12.80;99.90
52127;DHT22;38120;53.176;6.614;2022-10-15T06:56:28;12.90;99.90
52127;DHT22;38120;53.176;6.614;2022-10-15T06:58:54;12.90;99.90
52127;DHT22;38120;53.176;6.614;2022-10-15T07:01:20;12.90;99.90
52127;DHT22;38120;53.176;6.614;2022-10-15T07:03:49;12.90;99.90
52127;DHT22;38120;53.176;6.614;2022-10-15T07:06:15;13.00;99.90
52127;DHT22;38120;53.176;6.614;2022-10-15T07:08:41;12.90;99.90
52127;DHT22;38120;53.176;6.614;2022-10-15T07:11:07;13.00;99.90
52127;DHT22;38120;53.176;6.614;2022-10-15T07:13:34;12.90;99.90
52127;DHT22;38120;53.176;6.614;2022-10-15T07:16:04;13.00;99.90
52127;DHT22;38120;53.176;6.614;2022-10-15T07:18:30;13.00;99.90
52127;DHT22;38120;53.176;6.614;2022-10-15T07:20:56;13.00;99.90
52127;DHT22;38120;53.176;6.614;2022-10-15T07:23:22;13.10;99.90
52127;DHT22;38120;53.176;6.614;2022-10-15T07:25:47;13.10;99.90
52127;DHT22;38120;53.176;6.614;2022-10-15T07:28:13;13.20;99.90
52127;DHT22;38120;53.176;6.614;2022-10-15T07:30:39;13.20;99.90
52127;DHT22;38120;53.176;6.614;2022-10-15T07:33:05;13.10;99.90
52127;DHT22;38120;53.176;6.614;2022-10-15T07:35:30;13.30;99.90
52127;DHT22;38120;53.176;6.614;2022-10-15T07:37:59;13.30;99.90
52127;DHT22;38120;53.176;6.614;2022-10-15T07:40:26;13.30;99.90
52127;DHT22;38120;53.176;6.614;2022-10-15T07:42:56;13.30;99.90
52127;DHT22;38120;53.176;6.614;2022-10-15T07:45:22;13.30;99.90
52127;DHT22;38120;53.176;6.614;2022-10-15T07:47:48;13.30;99.90
52127;DHT22;38120;53.176;6.614;2022-10-15T07:50:14;13.30;99.90
52127;DHT22;38120;53.176;6.614;2022-10-15T07:52:39;13.30;99.90
52127;DHT22;38120;53.176;6.614;2022-10-15T07:55:06;13.30;99.90
52127;DHT22;38120;53.176;6.614;2022-10-15T07:57:31;13.30;99.90
52127;DHT22;38120;53.176;6.614;2022-10-15T07:59:57;13.30;99.90
52127;DHT22;38120;53.176;6.614;2022-10-15T08:02:23;13.50;99.90
52127;DHT22;38120;53.176;6.614;2022-10-15T08:04:48;13.50;99.90
52127;DHT22;38120;53.176;6.614;2022-10-15T08:07:14;13.50;99.90
52127;DHT22;38120;53.176;6.614;2022-10-15T08:09:40;13.60;99.90
52127;DHT22;38120;53.176;6.614;2022-10-15T08:12:06;13.60;99.90
52127;DHT22;38120;53.176;6.614;2022-10-15T08:14:33;13.70;99.90
52127;DHT22;38120;53.176;6.614;2022-10-15T08:17:01;13.80;99.90
52127;DHT22;38120;53.176;6.614;2022-10-15T08:19:27;13.80;99.90
52127;DHT22;38120;53.176;6.614;2022-10-15T08:21:53;13.90;99.90
52127;DHT22;38120;53.176;6.614;2022-10-15T08:24:18;14.00;99.90
52127;DHT22;38120;53.176;6.614;2022-10-15T08:26:44;13.90;99.90
52127;DHT22;38120;53.176;6.614;2022-10-15T08:29:11;14.00;99.90
52127;DHT22;38120;53.176;6.614;2022-10-15T08:31:39;14.00;99.90
52127;DHT22;38120;53.176;6.614;2022-10-15T08:34:06;14.20;99.90
52127;DHT22;38120;53.176;6.614;2022-10-15T08:36:31;14.30;99.90
52127;DHT22;38120;53.176;6.614;2022-10-15T08:38:57;14.30;99.90
52127;DHT22;38120;53.176;6.614;2022-10-15T08:41:36;14.30;99.90
52127;DHT22;38120;53.176;6.614;2022-10-15T08:44:03;14.30;99.90
52127;DHT22;38120;53.176;6.614;2022-10-15T08:46:43;13.40;99.90
52127;DHT22;38120;53.176;6.614;2022-10-15T08:49:58;14.40;99.90
52127;DHT22;38120;53.176;6.614;2022-10-15T08:52:14;14.50;99.90
52127;DHT22;38120;53.176;6.614;2022-10-15T08:54:41;14.40;99.90
52127;DHT22;38120;53.176;6.614;2022-10-15T09:00:00;14.50;99.90
52127;DHT22;38120;53.176;6.614;2022-10-15T09:02:36;14.50;99.90
52127;DHT22;38120;53.176;6.614;2022-10-15T09:05:27;14.50;99.90
52127;DHT22;38120;53.176;6.614;2022-10-15T09:10:49;14.60;99.90
52127;DHT22;38120;53.176;6.614;2022-10-15T09:13:32;14.60;99.90
52127;DHT22;38120;53.176;6.614;2022-10-15T09:16:20;14.50;99.90
52127;DHT22;38120;53.176;6.614;2022-10-15T09:18:48;14.50;99.90
52127;DHT22;38120;53.176;6.614;2022-10-15T09:21:14;14.60;99.90
52127;DHT22;38120;53.176;6.614;2022-10-15T09:23:40;14.60;99.90
52127;DHT22;38120;53.176;6.614;2022-10-15T09:28:51;14.50;99.90
52127;DHT22;38120;53.176;6.614;2022-10-15T09:31:24;14.40;99.90
52127;DHT22;38120;53.176;6.614;2022-10-15T09:34:19;14.40;99.90
52127;DHT22;38120;53.176;6.614;2022-10-15T09:36:55;14.40;99.90
52127;DHT22;38120;53.176;6.614;2022-10-15T09:39:51;14.30;99.90
52127;DHT22;38120;53.176;6.614;2022-10-15T09:42:30;14.40;99.90
52127;DHT22;38120;53.176;6.614;2022-10-15T09:45:02;14.30;99.90
52127;DHT22;38120;53.176;6.614;2022-10-15T09:47:31;14.40;99.90
52127;DHT22;38120;53.176;6.614;2022-10-15T09:49:57;14.40;99.90
52127;DHT22;38120;53.176;6.614;2022-10-15T09:55:29;14.30;99.90
52127;DHT22;38120;53.176;6.614;2022-10-15T09:58:01;14.40;99.90
52127;DHT22;38120;53.176;6.614;2022-10-15T10:01:00;14.30;99.90
52127;DHT22;38120;53.176;6.614;2022-10-15T10:03:29;14.30;99.90
52127;DHT22;38120;53.176;6.614;2022-10-15T10:06:09;14.30;99.90
52127;DHT22;38120;53.176;6.614;2022-10-15T10:11:16;14.30;99.90
52127;DHT22;38120;53.176;6.614;2022-10-15T10:16:18;14.30;99.90
52127;DHT22;38120;53.176;6.614;2022-10-15T10:19:13;14.20;99.90
52127;DHT22;38120;53.176;6.614;2022-10-15T10:21:40;14.20;99.90
52127;DHT22;38120;53.176;6.614;2022-10-15T10:24:36;14.20;99.90
52127;DHT22;38120;53.176;6.614;2022-10-15T10:27:02;14.10;99.90
52127;DHT22;38120;53.176;6.614;2022-10-15T10:29:32;14.20;99.90
52127;DHT22;38120;53.176;6.614;2022-10-15T10:31:59;14.20;99.90
52127;DHT22;38120;53.176;6.614;2022-10-15T10:34:30;14.20;99.90
52127;DHT22;38120;53.176;6.614;2022-10-15T10:37:02;14.20;99.90
52127;DHT22;38120;53.176;6.614;2022-10-15T10:39:33;14.20;99.90
52127;DHT22;38120;53.176;6.614;2022-10-15T10:42:03;14.20;99.90
52127;DHT22;38120;53.176;6.614;2022-10-15T10:44:34;14.30;99.90
52127;DHT22;38120;53.176;6.614;2022-10-15T10:47:03;14.30;99.90
52127;DHT22;38120;53.176;6.614;2022-10-15T10:49:35;14.40;99.90
52127;DHT22;38120;53.176;6.614;2022-10-15T10:52:03;14.40;99.90
52127;DHT22;38120;53.176;6.614;2022-10-15T10:54:30;14.50;99.90
52127;DHT22;38120;53.176;6.614;2022-10-15T10:56:58;14.50;99.90
52127;DHT22;38120;53.176;6.614;2022-10-15T11:01:53;14.60;99.90
52127;DHT22;38120;53.176;6.614;2022-10-15T11:04:27;14.60;99.90
52127;DHT22;38120;53.176;6.614;2022-10-15T11:12:47;14.70;99.90
52127;DHT22;38120;53.176;6.614;2022-10-15T11:15:16;14.60;99.90
52127;DHT22;38120;53.176;6.614;2022-10-15T11:25:54;15.30;99.90
52127;DHT22;38120;53.176;6.614;2022-10-15T11:31:37;15.30;99.90
52127;DHT22;38120;53.176;6.614;2022-10-15T11:34:15;15.50;99.90
52127;DHT22;38120;53.176;6.614;2022-10-15T11:37:09;15.50;99.90
52127;DHT22;38120;53.176;6.614;2022-10-15T11:42:58;15.50;99.90
52127;DHT22;38120;53.176;6.614;2022-10-15T11:48:33;15.40;99.90
52127;DHT22;38120;53.176;6.614;2022-10-15T11:54:26;14.60;99.90
52127;DHT22;38120;53.176;6.614;2022-10-15T11:56:55;15.40;99.90
52127;DHT22;38120;53.176;6.614;2022-10-15T11:59:55;15.50;99.90
52127;DHT22;38120;53.176;6.614;2022-10-15T12:02:39;15.60;99.90
52127;DHT22;38120;53.176;6.614;2022-10-15T12:07:40;15.70;99.90
52127;DHT22;38120;53.176;6.614;2022-10-15T12:10:38;15.70;99.90
52127;DHT22;38120;53.176;6.614;2022-10-15T12:13:39;15.70;99.90
52127;DHT22;38120;53.176;6.614;2022-10-15T12:16:19;15.70;99.90
52127;DHT22;38120;53.176;6.614;2022-10-15T12:29:51;16.00;99.90
52127;DHT22;38120;53.176;6.614;2022-10-15T12:32:45;16.00;99.90
52127;DHT22;38120;53.176;6.614;2022-10-15T12:35:27;15.90;99.90
52127;DHT22;38120;53.176;6.614;2022-10-15T12:37:54;15.80;99.90
52127;DHT22;38120;53.176;6.614;2022-10-15T12:42:49;15.80;99.90
52127;DHT22;38120;53.176;6.614;2022-10-15T12:46:07;15.80;99.90
52127;DHT22;38120;53.176;6.614;2022-10-15T12:50:34;15.70;99.90
52127;DHT22;38120;53.176;6.614;2022-10-15T12:56:23;15.70;99.90
52127;DHT22;38120;53.176;6.614;2022-10-15T12:58:54;15.60;99.90
52127;DHT22;38120;53.176;6.614;2022-10-15T13:09:27;15.60;99.90
52127;DHT22;38120;53.176;6.614;2022-10-15T13:11:56;15.50;99.90
52127;DHT22;38120;53.176;6.614;2022-10-15T13:14:39;15.50;99.90
52127;DHT22;38120;53.176;6.614;2022-10-15T13:17:19;15.40;99.90
52127;DHT22;38120;53.176;6.614;2022-10-15T13:19:57;15.40;99.90
52127;DHT22;38120;53.176;6.614;2022-10-15T13:22:29;15.40;99.90
52127;DHT22;38120;53.176;6.614;2022-10-15T13:24:55;15.40;99.90
52127;DHT22;38120;53.176;6.614;2022-10-15T13:30:01;15.40;99.90
52127;DHT22;38120;53.176;6.614;2022-10-15T13:32:31;15.40;99.90
52127;DHT22;38120;53.176;6.614;2022-10-15T13:34:59;15.40;99.90
52127;DHT22;38120;53.176;6.614;2022-10-15T13:37:31;15.40;99.90
52127;DHT22;38120;53.176;6.614;2022-10-15T13:39:59;16.00;99.90
52127;DHT22;38120;53.176;6.614;2022-10-15T13:42:26;15.40;99.90
52127;DHT22;38120;53.176;6.614;2022-10-15T13:45:15;15.50;99.90
52127;DHT22;38120;53.176;6.614;2022-10-15T13:47:46;15.40;99.90
52127;DHT22;38120;53.176;6.614;2022-10-15T13:50:20;15.40;99.90
52127;DHT22;38120;53.176;6.614;2022-10-15T13:52:53;15.40;99.90
52127;DHT22;38120;53.176;6.614;2022-10-15T13:55:22;15.40;99.90
52127;DHT22;38120;53.176;6.614;2022-10-15T13:57:51;15.40;99.90
52127;DHT22;38120;53.176;6.614;2022-10-15T14:00:24;15.40;99.90
52127;DHT22;38120;53.176;6.614;2022-10-15T14:05:40;15.40;99.90
52127;DHT22;38120;53.176;6.614;2022-10-15T14:08:18;15.40;99.90
52127;DHT22;38120;53.176;6.614;2022-10-15T14:10:44;15.40;99.90
52127;DHT22;38120;53.176;6.614;2022-10-15T14:13:10;15.30;99.90
52127;DHT22;38120;53.176;6.614;2022-10-15T14:15:43;15.40;99.90
52127;DHT22;38120;53.176;6.614;2022-10-15T14:18:12;15.40;99.90
52127;DHT22;38120;53.176;6.614;2022-10-15T14:20:43;15.30;99.90
52127;DHT22;38120;53.176;6.614;2022-10-15T14:23:28;15.30;99.90
52127;DHT22;38120;53.176;6.614;2022-10-15T14:25:59;15.40;99.90
52127;DHT22;38120;53.176;6.614;2022-10-15T14:28:26;15.40;99.90
52127;DHT22;38120;53.176;6.614;2022-10-15T14:30:53;15.40;99.90
52127;DHT22;38120;53.176;6.614;2022-10-15T14:36:11;15.40;99.90
52127;DHT22;38120;53.176;6.614;2022-10-15T14:38:37;15.40;99.90
52127;DHT22;38120;53.176;6.614;2022-10-15T14:41:17;15.40;99.90
52127;DHT22;38120;53.176;6.614;2022-10-15T14:43:43;15.50;99.90
52127;DHT22;38120;53.176;6.614;2022-10-15T14:46:15;15.40;99.90
52127;DHT22;38120;53.176;6.614;2022-10-15T14:48:42;15.50;99.90
52127;DHT22;38120;53.176;6.614;2022-10-15T14:51:19;15.50;99.90
52127;DHT22;38120;53.176;6.614;2022-10-15T14:53:47;15.50;99.90
52127;DHT22;38120;53.176;6.614;2022-10-15T14:56:16;15.40;99.90
52127;DHT22;38120;53.176;6.614;2022-10-15T14:58:54;15.50;99.90
52127;DHT22;38120;53.176;6.614;2022-10-15T15:01:21;15.50;99.90
52127;DHT22;38120;53.176;6.614;2022-10-15T15:03:52;15.50;99.90
52127;DHT22;38120;53.176;6.614;2022-10-15T15:06:18;15.50;99.90
52127;DHT22;38120;53.176;6.614;2022-10-15T15:08:44;15.50;99.90
52127;DHT22;38120;53.176;6.614;2022-10-15T15:11:28;15.60;99.90
52127;DHT22;38120;53.176;6.614;2022-10-15T15:13:54;15.50;99.90
52127;DHT22;38120;53.176;6.614;2022-10-15T15:16:20;15.50;99.90
52127;DHT22;38120;53.176;6.614;2022-10-15T15:18:46;15.60;99.90
52127;DHT22;38120;53.176;6.614;2022-10-15T15:21:19;15.60;99.90
52127;DHT22;38120;53.176;6.614;2022-10-15T15:23:46;15.70;99.90
52127;DHT22;38120;53.176;6.614;2022-10-15T15:26:12;15.70;99.90
52127;DHT22;38120;53.176;6.614;2022-10-15T15:28:38;15.60;99.90
52127;DHT22;38120;53.176;6.614;2022-10-15T15:31:12;15.70;99.90
52127;DHT22;38120;53.176;6.614;2022-10-15T15:33:38;15.70;99.90
52127;DHT22;38120;53.176;6.614;2022-10-15T15:36:11;15.70;99.90
52127;DHT22;38120;53.176;6.614;2022-10-15T15:38:37;15.70;99.90
52127;DHT22;38120;53.176;6.614;2022-10-15T15:41:23;15.60;99.90
52127;DHT22;38120;53.176;6.614;2022-10-15T15:43:50;15.60;99.90
52127;DHT22;38120;53.176;6.614;2022-10-15T15:46:16;15.70;99.90
52127;DHT22;38120;53.176;6.614;2022-10-15T15:48:42;15.60;99.90
52127;DHT22;38120;53.176;6.614;2022-10-15T15:51:24;15.60;99.90
52127;DHT22;38120;53.176;6.614;2022-10-15T15:53:50;15.60;99.90
52127;DHT22;38120;53.176;6.614;2022-10-15T15:56:16;15.50;99.90
52127;DHT22;38120;53.176;6.614;2022-10-15T15:58:42;15.50;99.90
52127;DHT22;38120;53.176;6.614;2022-10-15T16:01:08;15.40;99.90
52127;DHT22;38120;53.176;6.614;2022-10-15T16:03:35;15.40;99.90
52127;DHT22;38120;53.176;6.614;2022-10-15T16:06:01;15.40;99.90
52127;DHT22;38120;53.176;6.614;2022-10-15T16:08:28;15.40;99.90
52127;DHT22;38120;53.176;6.614;2022-10-15T16:10:54;15.30;99.90
52127;DHT22;38120;53.176;6.614;2022-10-15T16:13:20;15.30;99.90
52127;DHT22;38120;53.176;6.614;2022-10-15T16:15:45;15.30;99.90
52127;DHT22;38120;53.176;6.614;2022-10-15T16:18:11;15.20;99.90
52127;DHT22;38120;53.176;6.614;2022-10-15T16:20:37;15.20;99.90
52127;DHT22;38120;53.176;6.614;2022-10-15T16:23:06;15.20;99.90
52127;DHT22;38120;53.176;6.614;2022-10-15T16:25:32;15.20;99.90
52127;DHT22;38120;53.176;6.614;2022-10-15T16:27:57;15.20;99.90
52127;DHT22;38120;53.176;6.614;2022-10-15T16:30:26;15.20;99.90
52127;DHT22;38120;53.176;6.614;2022-10-15T16:32:52;15.10;99.90
52127;DHT22;38120;53.176;6.614;2022-10-15T16:35:17;15.20;99.90
52127;DHT22;38120;53.176;6.614;2022-10-15T16:37:43;15.10;99.90
52127;DHT22;38120;53.176;6.614;2022-10-15T16:40:10;15.30;99.90
52127;DHT22;38120;53.176;6.614;2022-10-15T16:42:36;15.10;99.90
52127;DHT22;38120;53.176;6.614;2022-10-15T16:45:02;15.10;99.90
52127;DHT22;38120;53.176;6.614;2022-10-15T16:47:28;15.10;99.90
52127;DHT22;38120;53.176;6.614;2022-10-15T16:49:53;15.10;99.90
52127;DHT22;38120;53.176;6.614;2022-10-15T16:52:19;15.10;99.90
52127;DHT22;38120;53.176;6.614;2022-10-15T16:54:45;15.00;99.90
52127;DHT22;38120;53.176;6.614;2022-10-15T16:57:11;15.10;99.90
52127;DHT22;38120;53.176;6.614;2022-10-15T16:59:37;15.00;99.90
52127;DHT22;38120;53.176;6.614;2022-10-15T17:02:03;15.00;99.90
52127;DHT22;38120;53.176;6.614;2022-10-15T17:04:29;14.90;99.90
52127;DHT22;38120;53.176;6.614;2022-10-15T17:06:55;14.90;99.90
52127;DHT22;38120;53.176;6.614;2022-10-15T17:09:20;14.90;99.90
52127;DHT22;38120;53.176;6.614;2022-10-15T17:11:48;14.90;99.90
52127;DHT22;38120;53.176;6.614;2022-10-15T17:14:15;14.80;99.90
52127;DHT22;38120;53.176;6.614;2022-10-15T17:16:46;14.90;99.90
52127;DHT22;38120;53.176;6.614;2022-10-15T17:19:14;14.80;99.90
52127;DHT22;38120;53.176;6.614;2022-10-15T17:21:41;14.80;99.90
52127;DHT22;38120;53.176;6.614;2022-10-15T17:24:09;14.80;99.90
52127;DHT22;38120;53.176;6.614;2022-10-15T17:26:36;14.70;99.90
52127;DHT22;38120;53.176;6.614;2022-10-15T17:29:04;14.80;99.90
52127;DHT22;38120;53.176;6.614;2022-10-15T17:31:31;14.70;99.90
52127;DHT22;38120;53.176;6.614;2022-10-15T17:34:03;14.70;99.90
52127;DHT22;38120;53.176;6.614;2022-10-15T17:36:30;14.70;99.90
52127;DHT22;38120;53.176;6.614;2022-10-15T17:39:00;14.70;99.90
52127;DHT22;38120;53.176;6.614;2022-10-15T17:41:28;14.60;99.90